100LL.CA
Aviation Fuel Pricing for Canadians
Please upgrade your browser - Tested with IE9, FireFox, Chrome, Safari

Fuel Airports Other Help
Prices Economy Info List METAR/TAF Kneeboard Help

Reference Airport: GOLDEN, BC
N 51 17 57  W 116 58 56
Provinces to show:

CYGE GOLDEN, BC
WEATHER
METARCYGE 131800Z 00000KT 20SM FEW065 FEW150 SCT230 11/M01 A2991 RMK CU2AC1CS2 AC TR SLP145 DENSITY ALT 2800FT
OTHER SITES

FlightAware

FltPlan

Google Maps

SkyVector
FUEL
FBO 100LL
member
100LL
public
JETA MOGAS
Opr (2020-08-02)1.6601.280
  Note: East Kootenay Fuel Sales
Canada Flight Supplement - CYGE
(opens in new tab/window)


Please Send Updates!

Desktop Version ]  [ Mobile Version ]  [ Disclaimer ]